sensor_id;sensor_type;location;lat;lon;timestamp;P1;durP1;ratioP1;P2;durP2;ratioP2
66298;SDS011;53098;47.658;8.578;2022-09-03T00:00:21;5.07;;;1.98;;
66298;SDS011;53098;47.658;8.578;2022-09-03T00:02:48;5.35;;;2.10;;
66298;SDS011;53098;47.658;8.578;2022-09-03T00:05:21;9.77;;;2.05;;
66298;SDS011;53098;47.658;8.578;2022-09-03T00:07:50;6.28;;;2.15;;
66298;SDS011;53098;47.658;8.578;2022-09-03T00:10:27;5.93;;;1.70;;
66298;SDS011;53098;47.658;8.578;2022-09-03T00:12:53;3.25;;;1.70;;
66298;SDS011;53098;47.658;8.578;2022-09-03T00:15:21;5.05;;;1.95;;
66298;SDS011;53098;47.658;8.578;2022-09-03T00:20:44;5.05;;;2.10;;
66298;SDS011;53098;47.658;8.578;2022-09-03T00:23:15;5.70;;;1.88;;
66298;SDS011;53098;47.658;8.578;2022-09-03T00:25:59;4.78;;;1.60;;
66298;SDS011;53098;47.658;8.578;2022-09-03T00:28:26;3.08;;;1.70;;
66298;SDS011;53098;47.658;8.578;2022-09-03T00:31:01;6.45;;;2.08;;
66298;SDS011;53098;47.658;8.578;2022-09-03T00:33:29;4.63;;;2.00;;
66298;SDS011;53098;47.658;8.578;2022-09-03T00:38:30;4.85;;;2.00;;
66298;SDS011;53098;47.658;8.578;2022-09-03T00:45:57;6.30;;;2.10;;
66298;SDS011;53098;47.658;8.578;2022-09-03T00:48:29;4.82;;;1.90;;
66298;SDS011;53098;47.658;8.578;2022-09-03T01:00:48;4.87;;;2.13;;
66298;SDS011;53098;47.658;8.578;2022-09-03T01:03:18;4.18;;;1.95;;
66298;SDS011;53098;47.658;8.578;2022-09-03T01:13:27;3.97;;;1.95;;
66298;SDS011;53098;47.658;8.578;2022-09-03T01:18:45;6.20;;;2.13;;
66298;SDS011;53098;47.658;8.578;2022-09-03T01:29:03;4.40;;;2.07;;
66298;SDS011;53098;47.658;8.578;2022-09-03T01:39:02;10.30;;;2.57;;
66298;SDS011;53098;47.658;8.578;2022-09-03T01:46:25;4.70;;;1.80;;
66298;SDS011;53098;47.658;8.578;2022-09-03T01:51:20;7.23;;;2.73;;
66298;SDS011;53098;47.658;8.578;2022-09-03T01:59:06;16.08;;;2.45;;
66298;SDS011;53098;47.658;8.578;2022-09-03T02:01:44;4.32;;;2.15;;
66298;SDS011;53098;47.658;8.578;2022-09-03T02:06:35;4.73;;;2.00;;
66298;SDS011;53098;47.658;8.578;2022-09-03T02:09:01;4.88;;;2.35;;
66298;SDS011;53098;47.658;8.578;2022-09-03T02:11:26;8.20;;;2.50;;
66298;SDS011;53098;47.658;8.578;2022-09-03T02:13:53;5.07;;;2.25;;
66298;SDS011;53098;47.658;8.578;2022-09-03T02:16:21;7.40;;;2.30;;
66298;SDS011;53098;47.658;8.578;2022-09-03T02:18:47;5.63;;;2.22;;
66298;SDS011;53098;47.658;8.578;2022-09-03T02:21:16;5.40;;;2.38;;
66298;SDS011;53098;47.658;8.578;2022-09-03T02:23:41;7.45;;;2.10;;
66298;SDS011;53098;47.658;8.578;2022-09-03T02:26:07;5.43;;;1.98;;
66298;SDS011;53098;47.658;8.578;2022-09-03T02:28:34;7.97;;;2.40;;
66298;SDS011;53098;47.658;8.578;2022-09-03T02:30:59;4.05;;;1.80;;
66298;SDS011;53098;47.658;8.578;2022-09-03T02:33:24;4.25;;;2.10;;
66298;SDS011;53098;47.658;8.578;2022-09-03T02:35:50;7.97;;;2.08;;
66298;SDS011;53098;47.658;8.578;2022-09-03T02:38:19;5.43;;;2.13;;
66298;SDS011;53098;47.658;8.578;2022-09-03T02:40:44;6.07;;;2.22;;
66298;SDS011;53098;47.658;8.578;2022-09-03T02:43:12;5.13;;;2.28;;
66298;SDS011;53098;47.658;8.578;2022-09-03T02:45:40;5.05;;;2.03;;
66298;SDS011;53098;47.658;8.578;2022-09-03T02:48:07;4.00;;;1.90;;
66298;SDS011;53098;47.658;8.578;2022-09-03T02:50:38;4.75;;;2.28;;
66298;SDS011;53098;47.658;8.578;2022-09-03T02:53:04;6.05;;;2.08;;
66298;SDS011;53098;47.658;8.578;2022-09-03T02:55:29;5.67;;;2.07;;
66298;SDS011;53098;47.658;8.578;2022-09-03T02:57:54;5.53;;;2.10;;
66298;SDS011;53098;47.658;8.578;2022-09-03T03:00:19;6.87;;;1.87;;
66298;SDS011;53098;47.658;8.578;2022-09-03T03:02:45;7.80;;;2.33;;
66298;SDS011;53098;47.658;8.578;2022-09-03T03:05:11;4.60;;;2.37;;
66298;SDS011;53098;47.658;8.578;2022-09-03T03:07:39;5.82;;;2.10;;
66298;SDS011;53098;47.658;8.578;2022-09-03T03:10:05;8.32;;;2.28;;
66298;SDS011;53098;47.658;8.578;2022-09-03T03:12:30;5.80;;;2.40;;
66298;SDS011;53098;47.658;8.578;2022-09-03T03:14:55;4.40;;;2.10;;
66298;SDS011;53098;47.658;8.578;2022-09-03T03:17:24;5.70;;;2.20;;
66298;SDS011;53098;47.658;8.578;2022-09-03T03:19:49;6.07;;;2.60;;
66298;SDS011;53098;47.658;8.578;2022-09-03T03:22:14;7.23;;;2.80;;
66298;SDS011;53098;47.658;8.578;2022-09-03T03:24:39;8.10;;;3.03;;
66298;SDS011;53098;47.658;8.578;2022-09-03T03:27:05;6.43;;;2.50;;
66298;SDS011;53098;47.658;8.578;2022-09-03T03:29:30;4.60;;;2.40;;
66298;SDS011;53098;47.658;8.578;2022-09-03T03:31:55;7.00;;;2.70;;
66298;SDS011;53098;47.658;8.578;2022-09-03T03:34:21;7.33;;;3.70;;
66298;SDS011;53098;47.658;8.578;2022-09-03T03:36:46;7.53;;;3.40;;
66298;SDS011;53098;47.658;8.578;2022-09-03T03:39:11;8.57;;;3.50;;
66298;SDS011;53098;47.658;8.578;2022-09-03T03:41:36;9.07;;;3.93;;
66298;SDS011;53098;47.658;8.578;2022-09-03T03:44:03;8.03;;;3.20;;
66298;SDS011;53098;47.658;8.578;2022-09-03T03:46:29;8.68;;;3.70;;
66298;SDS011;53098;47.658;8.578;2022-09-03T03:48:55;6.13;;;2.90;;
66298;SDS011;53098;47.658;8.578;2022-09-03T03:51:20;7.55;;;2.50;;
66298;SDS011;53098;47.658;8.578;2022-09-03T03:53:46;5.60;;;2.40;;
66298;SDS011;53098;47.658;8.578;2022-09-03T03:56:12;6.70;;;2.67;;
66298;SDS011;53098;47.658;8.578;2022-09-03T03:58:38;7.55;;;3.00;;
66298;SDS011;53098;47.658;8.578;2022-09-03T04:01:05;12.60;;;3.35;;
66298;SDS011;53098;47.658;8.578;2022-09-03T04:03:30;5.22;;;2.55;;
66298;SDS011;53098;47.658;8.578;2022-09-03T04:05:56;7.67;;;3.00;;
66298;SDS011;53098;47.658;8.578;2022-09-03T04:08:21;5.85;;;2.97;;
66298;SDS011;53098;47.658;8.578;2022-09-03T04:10:47;8.27;;;3.17;;
66298;SDS011;53098;47.658;8.578;2022-09-03T04:13:12;7.13;;;2.83;;
66298;SDS011;53098;47.658;8.578;2022-09-03T04:15:37;4.97;;;2.57;;
66298;SDS011;53098;47.658;8.578;2022-09-03T04:18:03;5.78;;;2.63;;
66298;SDS011;53098;47.658;8.578;2022-09-03T04:20:28;5.75;;;2.63;;
66298;SDS011;53098;47.658;8.578;2022-09-03T04:22:53;8.23;;;3.30;;
66298;SDS011;53098;47.658;8.578;2022-09-03T04:25:19;5.73;;;2.70;;
66298;SDS011;53098;47.658;8.578;2022-09-03T04:27:44;10.87;;;2.60;;
66298;SDS011;53098;47.658;8.578;2022-09-03T04:30:09;8.20;;;3.30;;
66298;SDS011;53098;47.658;8.578;2022-09-03T04:32:35;6.28;;;3.03;;
66298;SDS011;53098;47.658;8.578;2022-09-03T04:35:00;9.30;;;3.03;;
66298;SDS011;53098;47.658;8.578;2022-09-03T04:37:25;7.87;;;3.33;;
66298;SDS011;53098;47.658;8.578;2022-09-03T04:39:51;6.87;;;2.90;;
66298;SDS011;53098;47.658;8.578;2022-09-03T04:42:16;8.03;;;2.93;;
66298;SDS011;53098;47.658;8.578;2022-09-03T04:44:41;5.13;;;2.70;;
66298;SDS011;53098;47.658;8.578;2022-09-03T04:47:07;5.97;;;2.67;;
66298;SDS011;53098;47.658;8.578;2022-09-03T04:49:32;8.43;;;3.17;;
66298;SDS011;53098;47.658;8.578;2022-09-03T04:51:57;6.30;;;3.07;;
66298;SDS011;53098;47.658;8.578;2022-09-03T04:54:22;7.13;;;3.10;;
66298;SDS011;53098;47.658;8.578;2022-09-03T04:56:48;8.17;;;2.97;;
66298;SDS011;53098;47.658;8.578;2022-09-03T04:59:13;6.23;;;2.87;;
66298;SDS011;53098;47.658;8.578;2022-09-03T05:01:39;12.00;;;2.75;;
66298;SDS011;53098;47.658;8.578;2022-09-03T05:04:05;6.45;;;2.90;;
66298;SDS011;53098;47.658;8.578;2022-09-03T05:06:31;6.10;;;2.95;;
66298;SDS011;53098;47.658;8.578;2022-09-03T05:08:59;8.18;;;2.60;;
66298;SDS011;53098;47.658;8.578;2022-09-03T05:11:25;6.38;;;2.97;;
66298;SDS011;53098;47.658;8.578;2022-09-03T05:13:52;6.53;;;2.75;;
66298;SDS011;53098;47.658;8.578;2022-09-03T05:16:18;6.65;;;2.75;;
66298;SDS011;53098;47.658;8.578;2022-09-03T05:18:43;6.72;;;2.78;;
66298;SDS011;53098;47.658;8.578;2022-09-03T05:21:16;7.95;;;2.70;;
66298;SDS011;53098;47.658;8.578;2022-09-03T05:23:42;6.40;;;2.72;;
66298;SDS011;53098;47.658;8.578;2022-09-03T05:26:10;6.80;;;3.05;;
66298;SDS011;53098;47.658;8.578;2022-09-03T05:28:36;9.00;;;2.70;;
66298;SDS011;53098;47.658;8.578;2022-09-03T05:31:03;5.10;;;2.30;;
66298;SDS011;53098;47.658;8.578;2022-09-03T05:33:32;6.57;;;2.65;;
66298;SDS011;53098;47.658;8.578;2022-09-03T05:36:01;5.47;;;2.60;;
66298;SDS011;53098;47.658;8.578;2022-09-03T05:38:26;6.65;;;2.58;;
66298;SDS011;53098;47.658;8.578;2022-09-03T05:40:52;12.10;;;2.97;;
66298;SDS011;53098;47.658;8.578;2022-09-03T05:43:20;5.80;;;2.70;;
66298;SDS011;53098;47.658;8.578;2022-09-03T05:45:45;7.18;;;2.63;;
66298;SDS011;53098;47.658;8.578;2022-09-03T05:48:10;6.50;;;2.73;;
66298;SDS011;53098;47.658;8.578;2022-09-03T05:50:36;6.97;;;2.80;;
66298;SDS011;53098;47.658;8.578;2022-09-03T05:53:01;5.33;;;2.63;;
66298;SDS011;53098;47.658;8.578;2022-09-03T05:55:26;7.97;;;2.72;;
66298;SDS011;53098;47.658;8.578;2022-09-03T05:57:52;6.37;;;2.63;;
66298;SDS011;53098;47.658;8.578;2022-09-03T06:00:17;5.90;;;2.77;;
66298;SDS011;53098;47.658;8.578;2022-09-03T06:02:42;5.38;;;2.65;;
66298;SDS011;53098;47.658;8.578;2022-09-03T06:05:07;7.50;;;2.60;;
66298;SDS011;53098;47.658;8.578;2022-09-03T06:07:33;6.20;;;2.77;;
66298;SDS011;53098;47.658;8.578;2022-09-03T06:09:58;6.63;;;2.90;;
66298;SDS011;53098;47.658;8.578;2022-09-03T06:12:23;6.10;;;2.97;;
66298;SDS011;53098;47.658;8.578;2022-09-03T06:14:48;6.53;;;3.07;;
66298;SDS011;53098;47.658;8.578;2022-09-03T06:17:14;12.50;;;3.50;;
66298;SDS011;53098;47.658;8.578;2022-09-03T06:19:39;7.70;;;2.70;;
66298;SDS011;53098;47.658;8.578;2022-09-03T06:22:04;6.00;;;2.90;;
66298;SDS011;53098;47.658;8.578;2022-09-03T06:24:30;6.80;;;3.13;;
66298;SDS011;53098;47.658;8.578;2022-09-03T06:26:55;7.27;;;3.30;;
66298;SDS011;53098;47.658;8.578;2022-09-03T06:29:21;5.35;;;2.90;;
66298;SDS011;53098;47.658;8.578;2022-09-03T06:31:46;7.07;;;3.33;;
66298;SDS011;53098;47.658;8.578;2022-09-03T06:34:11;7.13;;;3.58;;
66298;SDS011;53098;47.658;8.578;2022-09-03T06:36:36;7.32;;;3.50;;
66298;SDS011;53098;47.658;8.578;2022-09-03T06:39:02;9.33;;;3.07;;
66298;SDS011;53098;47.658;8.578;2022-09-03T06:41:29;6.67;;;2.90;;
66298;SDS011;53098;47.658;8.578;2022-09-03T06:43:56;8.13;;;3.65;;
66298;SDS011;53098;47.658;8.578;2022-09-03T06:46:22;8.45;;;3.55;;
66298;SDS011;53098;47.658;8.578;2022-09-03T06:48:48;8.13;;;3.47;;
66298;SDS011;53098;47.658;8.578;2022-09-03T06:51:17;5.93;;;2.65;;
66298;SDS011;53098;47.658;8.578;2022-09-03T06:53:44;6.20;;;3.05;;
66298;SDS011;53098;47.658;8.578;2022-09-03T06:56:10;6.60;;;3.15;;
66298;SDS011;53098;47.658;8.578;2022-09-03T06:58:37;6.75;;;3.30;;
66298;SDS011;53098;47.658;8.578;2022-09-03T07:01:03;6.28;;;3.10;;
66298;SDS011;53098;47.658;8.578;2022-09-03T07:03:29;6.35;;;3.08;;
66298;SDS011;53098;47.658;8.578;2022-09-03T07:05:58;7.47;;;3.00;;
66298;SDS011;53098;47.658;8.578;2022-09-03T07:08:23;9.93;;;2.85;;
66298;SDS011;53098;47.658;8.578;2022-09-03T07:10:49;6.77;;;3.37;;
66298;SDS011;53098;47.658;8.578;2022-09-03T07:13:14;6.77;;;2.90;;
66298;SDS011;53098;47.658;8.578;2022-09-03T07:15:39;5.83;;;2.67;;
66298;SDS011;53098;47.658;8.578;2022-09-03T07:18:04;6.53;;;3.17;;
66298;SDS011;53098;47.658;8.578;2022-09-03T07:20:30;6.00;;;2.70;;
66298;SDS011;53098;47.658;8.578;2022-09-03T07:22:55;6.60;;;3.00;;
66298;SDS011;53098;47.658;8.578;2022-09-03T07:25:21;8.57;;;3.80;;
66298;SDS011;53098;47.658;8.578;2022-09-03T07:27:46;6.47;;;2.85;;
66298;SDS011;53098;47.658;8.578;2022-09-03T07:30:11;8.60;;;2.80;;
66298;SDS011;53098;47.658;8.578;2022-09-03T07:32:37;10.25;;;3.22;;
66298;SDS011;53098;47.658;8.578;2022-09-03T07:35:02;6.77;;;2.73;;
66298;SDS011;53098;47.658;8.578;2022-09-03T07:37:27;4.32;;;2.20;;
66298;SDS011;53098;47.658;8.578;2022-09-03T07:39:53;5.67;;;2.03;;
66298;SDS011;53098;47.658;8.578;2022-09-03T07:42:18;4.27;;;2.10;;
66298;SDS011;53098;47.658;8.578;2022-09-03T07:44:43;3.67;;;1.63;;
66298;SDS011;53098;47.658;8.578;2022-09-03T07:47:08;5.17;;;2.10;;
66298;SDS011;53098;47.658;8.578;2022-09-03T07:49:34;5.47;;;1.80;;
66298;SDS011;53098;47.658;8.578;2022-09-03T07:51:59;3.47;;;1.80;;
66298;SDS011;53098;47.658;8.578;2022-09-03T07:54:24;4.67;;;1.73;;
66298;SDS011;53098;47.658;8.578;2022-09-03T07:56:50;6.10;;;2.33;;
66298;SDS011;53098;47.658;8.578;2022-09-03T07:59:15;5.53;;;2.50;;
66298;SDS011;53098;47.658;8.578;2022-09-03T08:01:40;5.67;;;2.63;;
66298;SDS011;53098;47.658;8.578;2022-09-03T08:04:05;4.30;;;1.87;;
66298;SDS011;53098;47.658;8.578;2022-09-03T08:06:31;4.37;;;1.97;;
66298;SDS011;53098;47.658;8.578;2022-09-03T08:08:57;5.40;;;2.30;;
66298;SDS011;53098;47.658;8.578;2022-09-03T08:11:23;4.28;;;2.10;;
66298;SDS011;53098;47.658;8.578;2022-09-03T08:13:54;4.80;;;1.50;;
66298;SDS011;53098;47.658;8.578;2022-09-03T08:16:19;2.28;;;1.13;;
66298;SDS011;53098;47.658;8.578;2022-09-03T08:18:45;3.07;;;1.30;;
66298;SDS011;53098;47.658;8.578;2022-09-03T08:21:12;4.22;;;1.70;;
66298;SDS011;53098;47.658;8.578;2022-09-03T08:23:37;4.10;;;1.90;;
66298;SDS011;53098;47.658;8.578;2022-09-03T08:26:03;4.72;;;1.55;;
66298;SDS011;53098;47.658;8.578;2022-09-03T08:28:28;3.50;;;1.70;;
66298;SDS011;53098;47.658;8.578;2022-09-03T08:30:54;4.23;;;1.43;;
66298;SDS011;53098;47.658;8.578;2022-09-03T08:33:19;3.35;;;1.45;;
66298;SDS011;53098;47.658;8.578;2022-09-03T08:35:51;3.85;;;1.60;;
66298;SDS011;53098;47.658;8.578;2022-09-03T08:38:16;3.00;;;1.40;;
66298;SDS011;53098;47.658;8.578;2022-09-03T08:40:42;2.17;;;1.20;;
66298;SDS011;53098;47.658;8.578;2022-09-03T08:43:16;4.80;;;1.23;;
66298;SDS011;53098;47.658;8.578;2022-09-03T08:45:42;3.83;;;1.30;;
66298;SDS011;53098;47.658;8.578;2022-09-03T08:48:17;3.03;;;1.40;;
66298;SDS011;53098;47.658;8.578;2022-09-03T08:50:44;2.50;;;1.33;;
66298;SDS011;53098;47.658;8.578;2022-09-03T08:55:51;1.75;;;1.13;;
66298;SDS011;53098;47.658;8.578;2022-09-03T08:58:20;2.65;;;1.30;;
66298;SDS011;53098;47.658;8.578;2022-09-03T09:03:33;3.30;;;1.08;;
66298;SDS011;53098;47.658;8.578;2022-09-03T09:13:50;3.92;;;0.98;;
66298;SDS011;53098;47.658;8.578;2022-09-03T09:16:37;1.80;;;1.10;;
66298;SDS011;53098;47.658;8.578;2022-09-03T09:21:30;3.83;;;1.30;;
66298;SDS011;53098;47.658;8.578;2022-09-03T09:24:01;3.83;;;1.30;;
66298;SDS011;53098;47.658;8.578;2022-09-03T09:26:28;2.85;;;1.17;;
66298;SDS011;53098;47.658;8.578;2022-09-03T09:28:57;2.38;;;1.17;;
66298;SDS011;53098;47.658;8.578;2022-09-03T09:31:24;2.40;;;1.23;;
66298;SDS011;53098;47.658;8.578;2022-09-03T09:33:49;2.63;;;1.30;;
66298;SDS011;53098;47.658;8.578;2022-09-03T09:36:15;3.60;;;1.40;;
66298;SDS011;53098;47.658;8.578;2022-09-03T09:38:41;12.05;;;1.50;;
66298;SDS011;53098;47.658;8.578;2022-09-03T09:41:08;5.63;;;1.40;;
66298;SDS011;53098;47.658;8.578;2022-09-03T09:43:34;6.80;;;1.70;;
66298;SDS011;53098;47.658;8.578;2022-09-03T09:46:04;4.00;;;1.00;;
66298;SDS011;53098;47.658;8.578;2022-09-03T09:48:31;1.50;;;0.95;;
66298;SDS011;53098;47.658;8.578;2022-09-03T09:51:30;3.40;;;1.25;;
66298;SDS011;53098;47.658;8.578;2022-09-03T09:54:02;2.90;;;1.00;;
66298;SDS011;53098;47.658;8.578;2022-09-03T09:56:28;3.45;;;1.20;;
66298;SDS011;53098;47.658;8.578;2022-09-03T10:01:28;3.90;;;1.33;;
66298;SDS011;53098;47.658;8.578;2022-09-03T10:03:54;4.43;;;1.30;;
66298;SDS011;53098;47.658;8.578;2022-09-03T10:06:24;2.97;;;1.17;;
66298;SDS011;53098;47.658;8.578;2022-09-03T10:08:50;3.45;;;1.50;;
66298;SDS011;53098;47.658;8.578;2022-09-03T10:11:16;7.18;;;2.13;;
66298;SDS011;53098;47.658;8.578;2022-09-03T10:13:42;5.40;;;1.30;;
66298;SDS011;53098;47.658;8.578;2022-09-03T10:16:14;2.63;;;1.05;;
66298;SDS011;53098;47.658;8.578;2022-09-03T10:27:26;4.63;;;1.27;;
66298;SDS011;53098;47.658;8.578;2022-09-03T10:29:51;5.80;;;1.60;;
66298;SDS011;53098;47.658;8.578;2022-09-03T10:35:02;5.18;;;1.90;;
66298;SDS011;53098;47.658;8.578;2022-09-03T10:45:07;5.57;;;1.80;;
66298;SDS011;53098;47.658;8.578;2022-09-03T10:48:00;3.83;;;1.60;;
66298;SDS011;53098;47.658;8.578;2022-09-03T10:50:22;5.13;;;1.60;;
66298;SDS011;53098;47.658;8.578;2022-09-03T10:55:22;5.47;;;1.67;;
66298;SDS011;53098;47.658;8.578;2022-09-03T10:58:34;6.13;;;2.30;;
66298;SDS011;53098;47.658;8.578;2022-09-03T11:00:40;5.07;;;2.20;;
66298;SDS011;53098;47.658;8.578;2022-09-03T11:03:24;5.88;;;1.80;;
66298;SDS011;53098;47.658;8.578;2022-09-03T11:05:59;6.00;;;2.33;;
66298;SDS011;53098;47.658;8.578;2022-09-03T11:08:40;7.25;;;2.00;;
66298;SDS011;53098;47.658;8.578;2022-09-03T11:11:20;4.53;;;2.13;;
66298;SDS011;53098;47.658;8.578;2022-09-03T11:13:50;5.90;;;2.10;;
66298;SDS011;53098;47.658;8.578;2022-09-03T11:16:19;3.33;;;1.70;;
66298;SDS011;53098;47.658;8.578;2022-09-03T11:18:50;5.35;;;1.98;;
66298;SDS011;53098;47.658;8.578;2022-09-03T11:21:34;4.80;;;1.75;;
66298;SDS011;53098;47.658;8.578;2022-09-03T11:24:03;3.42;;;1.40;;
66298;SDS011;53098;47.658;8.578;2022-09-03T11:26:29;4.10;;;1.52;;
66298;SDS011;53098;47.658;8.578;2022-09-03T11:34:14;3.60;;;1.52;;
66298;SDS011;53098;47.658;8.578;2022-09-03T11:36:40;3.65;;;1.40;;
66298;SDS011;53098;47.658;8.578;2022-09-03T11:39:38;4.55;;;1.83;;
66298;SDS011;53098;47.658;8.578;2022-09-03T11:42:00;5.78;;;1.55;;
66298;SDS011;53098;47.658;8.578;2022-09-03T11:44:36;5.78;;;1.50;;
66298;SDS011;53098;47.658;8.578;2022-09-03T11:47:11;6.25;;;1.80;;
66298;SDS011;53098;47.658;8.578;2022-09-03T11:49:42;4.50;;;2.00;;
66298;SDS011;53098;47.658;8.578;2022-09-03T11:52:08;7.80;;;1.50;;
66298;SDS011;53098;47.658;8.578;2022-09-03T11:54:41;5.00;;;1.70;;
66298;SDS011;53098;47.658;8.578;2022-09-03T11:57:11;4.30;;;1.67;;
66298;SDS011;53098;47.658;8.578;2022-09-03T11:59:37;3.08;;;1.50;;
66298;SDS011;53098;47.658;8.578;2022-09-03T12:02:06;5.97;;;1.90;;
66298;SDS011;53098;47.658;8.578;2022-09-03T12:04:43;6.53;;;1.90;;
66298;SDS011;53098;47.658;8.578;2022-09-03T12:14:54;3.70;;;1.67;;
66298;SDS011;53098;47.658;8.578;2022-09-03T12:19:53;3.63;;;1.60;;
66298;SDS011;53098;47.658;8.578;2022-09-03T12:22:20;3.17;;;1.50;;
66298;SDS011;53098;47.658;8.578;2022-09-03T12:24:46;3.10;;;1.48;;
66298;SDS011;53098;47.658;8.578;2022-09-03T12:27:14;3.70;;;1.33;;
66298;SDS011;53098;47.658;8.578;2022-09-03T12:29:48;2.30;;;1.15;;
66298;SDS011;53098;47.658;8.578;2022-09-03T12:32:14;5.07;;;1.48;;
66298;SDS011;53098;47.658;8.578;2022-09-03T12:34:39;5.00;;;1.47;;
66298;SDS011;53098;47.658;8.578;2022-09-03T12:37:13;2.63;;;1.23;;
66298;SDS011;53098;47.658;8.578;2022-09-03T12:39:48;1.80;;;1.02;;
66298;SDS011;53098;47.658;8.578;2022-09-03T12:42:16;5.43;;;1.55;;
66298;SDS011;53098;47.658;8.578;2022-09-03T12:44:43;4.78;;;1.50;;
66298;SDS011;53098;47.658;8.578;2022-09-03T12:49:34;2.97;;;1.40;;
66298;SDS011;53098;47.658;8.578;2022-09-03T12:52:05;4.30;;;1.65;;
66298;SDS011;53098;47.658;8.578;2022-09-03T12:54:32;2.67;;;1.20;;
66298;SDS011;53098;47.658;8.578;2022-09-03T12:56:58;2.80;;;1.40;;
66298;SDS011;53098;47.658;8.578;2022-09-03T12:59:25;2.58;;;0.98;;
66298;SDS011;53098;47.658;8.578;2022-09-03T13:01:53;3.70;;;1.25;;
66298;SDS011;53098;47.658;8.578;2022-09-03T13:04:29;4.28;;;1.27;;
66298;SDS011;53098;47.658;8.578;2022-09-03T13:07:00;2.15;;;1.20;;
66298;SDS011;53098;47.658;8.578;2022-09-03T13:09:26;4.22;;;1.20;;
66298;SDS011;53098;47.658;8.578;2022-09-03T13:11:52;2.42;;;1.10;;
66298;SDS011;53098;47.658;8.578;2022-09-03T13:14:18;4.30;;;1.40;;
66298;SDS011;53098;47.658;8.578;2022-09-03T13:19:18;2.10;;;1.00;;
66298;SDS011;53098;47.658;8.578;2022-09-03T13:31:49;3.70;;;1.30;;
66298;SDS011;53098;47.658;8.578;2022-09-03T13:34:19;2.17;;;1.20;;
66298;SDS011;53098;47.658;8.578;2022-09-03T13:36:57;2.05;;;1.00;;
66298;SDS011;53098;47.658;8.578;2022-09-03T13:39:27;1.98;;;1.02;;
66298;SDS011;53098;47.658;8.578;2022-09-03T13:44:58;1.30;;;0.90;;
66298;SDS011;53098;47.658;8.578;2022-09-03T13:47:38;1.42;;;0.80;;
66298;SDS011;53098;47.658;8.578;2022-09-03T13:50:18;2.65;;;1.10;;
66298;SDS011;53098;47.658;8.578;2022-09-03T13:57:52;1.40;;;1.02;;
66298;SDS011;53098;47.658;8.578;2022-09-03T14:01:03;3.38;;;0.80;;
66298;SDS011;53098;47.658;8.578;2022-09-03T14:03:11;2.47;;;0.90;;
66298;SDS011;53098;47.658;8.578;2022-09-03T14:05:54;2.30;;;1.02;;
66298;SDS011;53098;47.658;8.578;2022-09-03T14:08:33;2.35;;;1.10;;
66298;SDS011;53098;47.658;8.578;2022-09-03T14:11:08;1.48;;;0.90;;
66298;SDS011;53098;47.658;8.578;2022-09-03T14:13:41;5.10;;;1.08;;
66298;SDS011;53098;47.658;8.578;2022-09-03T14:16:28;1.77;;;0.80;;
66298;SDS011;53098;47.658;8.578;2022-09-03T14:19:00;3.10;;;1.08;;
66298;SDS011;53098;47.658;8.578;2022-09-03T14:21:30;4.28;;;1.00;;
66298;SDS011;53098;47.658;8.578;2022-09-03T14:26:51;3.25;;;1.10;;
66298;SDS011;53098;47.658;8.578;2022-09-03T14:29:18;3.70;;;1.15;;
66298;SDS011;53098;47.658;8.578;2022-09-03T14:34:41;2.92;;;1.10;;
66298;SDS011;53098;47.658;8.578;2022-09-03T14:47:42;2.60;;;1.23;;
66298;SDS011;53098;47.658;8.578;2022-09-03T14:50:13;1.92;;;1.10;;
66298;SDS011;53098;47.658;8.578;2022-09-03T15:11:24;2.20;;;1.02;;
66298;SDS011;53098;47.658;8.578;2022-09-03T15:13:59;1.75;;;1.08;;
66298;SDS011;53098;47.658;8.578;2022-09-03T15:16:35;1.83;;;1.00;;
66298;SDS011;53098;47.658;8.578;2022-09-03T15:21:44;2.95;;;1.30;;
66298;SDS011;53098;47.658;8.578;2022-09-03T15:24:26;2.03;;;1.10;;
66298;SDS011;53098;47.658;8.578;2022-09-03T15:37:31;2.63;;;1.23;;
66298;SDS011;53098;47.658;8.578;2022-09-03T15:40:00;2.55;;;1.10;;
66298;SDS011;53098;47.658;8.578;2022-09-03T15:42:26;2.75;;;1.20;;
66298;SDS011;53098;47.658;8.578;2022-09-03T15:44:53;2.60;;;1.10;;
66298;SDS011;53098;47.658;8.578;2022-09-03T15:53:05;2.38;;;1.10;;
66298;SDS011;53098;47.658;8.578;2022-09-03T15:55:40;4.45;;;1.20;;
66298;SDS011;53098;47.658;8.578;2022-09-03T15:58:28;3.97;;;1.42;;
66298;SDS011;53098;47.658;8.578;2022-09-03T16:00:53;2.97;;;1.23;;
66298;SDS011;53098;47.658;8.578;2022-09-03T16:03:21;3.25;;;1.15;;
66298;SDS011;53098;47.658;8.578;2022-09-03T16:05:54;2.78;;;1.20;;
66298;SDS011;53098;47.658;8.578;2022-09-03T16:08:23;1.60;;;0.95;;
66298;SDS011;53098;47.658;8.578;2022-09-03T16:11:09;3.90;;;1.38;;
66298;SDS011;53098;47.658;8.578;2022-09-03T16:16:03;4.90;;;1.30;;
66298;SDS011;53098;47.658;8.578;2022-09-03T16:18:31;2.33;;;1.20;;
66298;SDS011;53098;47.658;8.578;2022-09-03T16:21:08;2.40;;;1.20;;
66298;SDS011;53098;47.658;8.578;2022-09-03T16:23:46;2.28;;;1.20;;
66298;SDS011;53098;47.658;8.578;2022-09-03T16:26:17;2.90;;;1.23;;
66298;SDS011;53098;47.658;8.578;2022-09-03T16:28:45;2.65;;;1.40;;
66298;SDS011;53098;47.658;8.578;2022-09-03T16:34:05;2.88;;;1.20;;
66298;SDS011;53098;47.658;8.578;2022-09-03T16:39:11;3.72;;;1.40;;
66298;SDS011;53098;47.658;8.578;2022-09-03T16:44:09;2.38;;;1.00;;
66298;SDS011;53098;47.658;8.578;2022-09-03T16:49:57;5.85;;;1.50;;
66298;SDS011;53098;47.658;8.578;2022-09-03T16:57:06;3.50;;;1.40;;
66298;SDS011;53098;47.658;8.578;2022-09-03T17:02:47;1.92;;;1.10;;
66298;SDS011;53098;47.658;8.578;2022-09-03T17:08:04;2.92;;;1.30;;
66298;SDS011;53098;47.658;8.578;2022-09-03T17:13:10;4.28;;;1.30;;
66298;SDS011;53098;47.658;8.578;2022-09-03T17:23:27;4.80;;;1.52;;
66298;SDS011;53098;47.658;8.578;2022-09-03T17:26:04;3.47;;;1.48;;
66298;SDS011;53098;47.658;8.578;2022-09-03T17:31:19;7.47;;;1.73;;
66298;SDS011;53098;47.658;8.578;2022-09-03T17:36:25;4.68;;;1.60;;
66298;SDS011;53098;47.658;8.578;2022-09-03T17:46:46;3.20;;;1.20;;
66298;SDS011;53098;47.658;8.578;2022-09-03T17:49:16;3.03;;;1.30;;
66298;SDS011;53098;47.658;8.578;2022-09-03T17:51:44;2.35;;;1.20;;
66298;SDS011;53098;47.658;8.578;2022-09-03T17:59:17;2.90;;;1.10;;
66298;SDS011;53098;47.658;8.578;2022-09-03T18:02:00;6.10;;;1.30;;
66298;SDS011;53098;47.658;8.578;2022-09-03T18:07:05;3.65;;;1.20;;
66298;SDS011;53098;47.658;8.578;2022-09-03T18:09:39;3.15;;;1.30;;
66298;SDS011;53098;47.658;8.578;2022-09-03T18:12:10;2.22;;;1.30;;
66298;SDS011;53098;47.658;8.578;2022-09-03T18:14:48;4.05;;;1.27;;
66298;SDS011;53098;47.658;8.578;2022-09-03T18:20:09;4.82;;;1.42;;
66298;SDS011;53098;47.658;8.578;2022-09-03T18:22:56;2.95;;;1.42;;
66298;SDS011;53098;47.658;8.578;2022-09-03T18:25:24;3.33;;;1.25;;
66298;SDS011;53098;47.658;8.578;2022-09-03T18:27:55;5.25;;;1.42;;
66298;SDS011;53098;47.658;8.578;2022-09-03T18:30:22;4.15;;;1.50;;
66298;SDS011;53098;47.658;8.578;2022-09-03T18:32:47;5.90;;;1.80;;
66298;SDS011;53098;47.658;8.578;2022-09-03T18:35:13;5.18;;;1.83;;
66298;SDS011;53098;47.658;8.578;2022-09-03T18:37:38;8.95;;;2.15;;
66298;SDS011;53098;47.658;8.578;2022-09-03T18:40:05;6.07;;;1.85;;
66298;SDS011;53098;47.658;8.578;2022-09-03T18:45:02;5.30;;;1.70;;
66298;SDS011;53098;47.658;8.578;2022-09-03T18:52:22;8.00;;;3.20;;
66298;SDS011;53098;47.658;8.578;2022-09-03T18:57:17;17.90;;;6.67;;
66298;SDS011;53098;47.658;8.578;2022-09-03T19:02:15;6.40;;;1.90;;
66298;SDS011;53098;47.658;8.578;2022-09-03T19:09:51;3.83;;;1.40;;
66298;SDS011;53098;47.658;8.578;2022-09-03T19:15:07;3.13;;;1.48;;
66298;SDS011;53098;47.658;8.578;2022-09-03T19:20:47;2.85;;;1.25;;
66298;SDS011;53098;47.658;8.578;2022-09-03T19:22:52;3.95;;;1.50;;
66298;SDS011;53098;47.658;8.578;2022-09-03T19:25:18;2.43;;;1.30;;
66298;SDS011;53098;47.658;8.578;2022-09-03T19:30:10;6.50;;;1.60;;
66298;SDS011;53098;47.658;8.578;2022-09-03T19:35:18;2.60;;;1.33;;